Time;durP1;ratioP1;P1;durP2;ratioP2;P2;SDS_P1;SDS_P2;PMS_P1;PMS_P2;Temp;Humidity;BMP_temperature;BMP_pressure;BME280_temperature;BME280_humidity;BME280_pressure;Samples;Min_cycle;Max_cycle;Signal;HPM_P1;HPM_P2
2022/08/05 00:00:11;;;;;;;5.90;5.40;;;22.20;99.90;;;;;;6051891;23;20400;-81
2022/08/05 00:02:43;;;;;;;9.13;6.90;;;22.20;99.90;;;;;;6073155;23;20464;-81
2022/08/05 00:05:17;;;;;;;5.60;5.20;;;22.20;99.90;;;;;;6072412;23;20361;-81
2022/08/05 00:08:04;;;;;;;5.80;5.40;;;22.10;99.90;;;;;;6072844;23;20751;-81
2022/08/05 00:10:51;;;;;;;7.00;5.97;;;22.10;99.90;;;;;;6072854;23;20381;-81
2022/08/05 00:13:18;;;;;;;6.93;6.37;;;22.00;99.90;;;;;;6072819;23;20380;-82
2022/08/05 00:16:05;;;;;;;7.60;5.63;;;22.10;99.90;;;;;;6074188;23;20401;-84
2022/08/05 00:18:34;;;;;;;5.70;5.10;;;22.10;99.90;;;;;;6048508;23;20422;-83
2022/08/05 00:21:04;;;;;;;6.63;6.03;;;22.10;99.90;;;;;;6071731;23;20425;-80
2022/08/05 00:23:33;;;;;;;8.00;6.70;;;22.10;99.90;;;;;;6048653;23;20435;-81
2022/08/05 00:26:20;;;;;;;6.47;5.87;;;22.10;99.90;;;;;;6072410;23;20765;-83
2022/08/05 00:28:47;;;;;;;6.30;5.70;;;22.00;99.90;;;;;;6071774;23;20372;-80
2022/08/05 00:31:15;;;;;;;7.30;5.10;;;22.10;99.90;;;;;;6048004;23;20855;-80
2022/08/05 00:34:03;;;;;;;5.97;5.57;;;22.00;99.90;;;;;;6073837;23;20409;-81
2022/08/05 00:36:52;;;;;;;6.03;5.53;;;22.00;99.90;;;;;;6072651;23;20369;-85
2022/08/05 00:39:41;;;;;;;6.83;6.00;;;22.10;99.90;;;;;;6073770;23;20383;-81
2022/08/05 00:42:32;;;;;;;5.40;5.00;;;22.10;99.90;;;;;;6073467;23;20426;-81
2022/08/05 00:44:59;;;;;;;6.47;5.87;;;21.90;99.90;;;;;;6054084;23;20456;-82
2022/08/05 00:47:27;;;;;;;7.07;6.37;;;21.80;99.90;;;;;;6082974;23;20432;-81
2022/08/05 00:50:13;;;;;;;5.67;5.27;;;21.70;99.90;;;;;;6084965;23;20377;-83
2022/08/05 00:52:41;;;;;;;7.23;5.37;;;21.80;99.90;;;;;;6074541;23;20411;-82
2022/08/05 00:55:12;;;;;;;6.37;5.73;;;21.80;99.90;;;;;;6074553;23;20768;-83
2022/08/05 00:57:40;;;;;;;5.87;5.37;;;21.70;99.90;;;;;;6074529;23;20405;-82
2022/08/05 01:00:23;;;;;;;6.60;6.00;;;21.70;99.90;;;;;;6075263;23;20398;-87
2022/08/05 01:02:52;;;;;;;6.03;5.43;;;21.60;99.90;;;;;;6073561;23;20423;-82
2022/08/05 01:05:19;;;;;;;5.40;4.90;;;21.70;99.90;;;;;;6073389;23;20427;-85
2022/08/05 01:07:46;;;;;;;6.47;5.97;;;21.70;99.90;;;;;;6076311;23;20441;-83
2022/08/05 01:10:54;;;;;;;6.90;6.03;;;21.70;99.90;;;;;;6076257;23;20417;-79
2022/08/05 01:13:35;;;;;;;6.30;5.70;;;21.60;99.90;;;;;;6076951;23;20798;-81
2022/08/05 01:16:37;;;;;;;5.77;5.37;;;21.50;99.90;;;;;;6074932;23;20378;-81
2022/08/05 01:19:32;;;;;;;5.80;5.30;;;21.50;99.90;;;;;;6074904;23;20459;-80
2022/08/05 01:22:30;;;;;;;12.80;5.93;;;21.40;99.90;;;;;;6074614;23;20816;-80
2022/08/05 01:25:36;;;;;;;7.10;5.60;;;21.40;99.90;;;;;;6049375;23;20751;-82
2022/08/05 01:28:33;;;;;;;6.87;6.17;;;21.30;99.90;;;;;;6074688;23;20403;-82
2022/08/05 01:31:20;;;;;;;6.30;5.70;;;21.30;99.90;;;;;;6050146;23;20413;-81
2022/08/05 01:34:03;;;;;;;5.57;5.17;;;21.30;99.90;;;;;;6075126;23;20360;-82
2022/08/05 01:36:41;;;;;;;6.10;5.60;;;21.20;99.90;;;;;;6076859;23;20485;-81
2022/08/05 01:39:15;;;;;;;6.97;5.57;;;21.30;99.90;;;;;;6073479;23;20418;-81
2022/08/05 01:42:04;;;;;;;6.43;5.70;;;21.30;99.90;;;;;;6073922;23;20425;-80
2022/08/05 01:44:33;;;;;;;5.93;5.43;;;21.30;99.90;;;;;;6079192;23;20955;-81
2022/08/05 01:47:02;;;;;;;11.80;6.00;;;21.20;99.90;;;;;;6079997;23;20466;-83
2022/08/05 01:49:34;;;;;;;8.00;6.30;;;21.10;99.90;;;;;;6077222;23;20439;-80
2022/08/05 01:52:22;;;;;;;7.07;6.57;;;21.10;99.90;;;;;;6074849;23;20393;-79
2022/08/05 01:55:00;;;;;;;6.93;6.33;;;21.20;99.90;;;;;;6073312;23;20500;-80
2022/08/05 01:57:40;;;;;;;7.43;6.80;;;21.10;99.90;;;;;;6072796;23;20360;-81
2022/08/05 02:00:29;;;;;;;7.73;6.43;;;21.10;99.90;;;;;;6072303;23;20718;-81
2022/08/05 02:03:03;;;;;;;6.40;5.80;;;21.20;99.90;;;;;;6072814;23;20525;-80
2022/08/05 02:05:34;;;;;;;6.57;5.73;;;21.10;99.90;;;;;;6073763;23;20405;-81
2022/08/05 02:08:03;;;;;;;6.33;5.00;;;21.00;99.90;;;;;;6073851;23;20409;-81
2022/08/05 02:10:39;;;;;;;6.77;6.17;;;20.90;99.90;;;;;;6073265;23;20485;-83
2022/08/05 02:13:37;;;;;;;6.43;5.87;;;20.90;99.90;;;;;;6075573;23;20419;-82
2022/08/05 02:16:26;;;;;;;6.67;6.00;;;20.90;99.90;;;;;;6076094;23;20370;-80
2022/08/05 02:19:09;;;;;;;6.33;5.83;;;20.80;99.90;;;;;;6077626;23;20814;-83
2022/08/05 02:21:42;;;;;;;7.10;6.27;;;20.80;99.90;;;;;;6075584;23;20395;-83
2022/08/05 02:24:18;;;;;;;7.30;6.60;;;20.80;99.90;;;;;;6076754;23;20405;-81
2022/08/05 02:26:53;;;;;;;6.40;5.80;;;20.80;99.90;;;;;;6075197;23;20444;-82
2022/08/05 02:29:26;;;;;;;6.03;5.33;;;20.80;99.90;;;;;;6075762;23;20710;-82
2022/08/05 02:32:19;;;;;;;8.80;5.80;;;20.80;99.90;;;;;;6074407;23;20386;-81
2022/08/05 02:35:00;;;;;;;13.90;7.10;;;20.70;99.90;;;;;;6074613;23;20384;-85
2022/08/05 02:37:42;;;;;;;7.07;6.37;;;20.60;99.90;;;;;;6074598;23;20359;-82
2022/08/05 02:40:21;;;;;;;5.97;5.47;;;20.60;99.90;;;;;;6051033;23;20890;-80
2022/08/05 02:42:51;;;;;;;7.10;6.07;;;20.50;99.90;;;;;;6074867;23;20456;-81
2022/08/05 02:45:21;;;;;;;5.93;5.43;;;20.50;99.90;;;;;;6077978;23;20382;-80
2022/08/05 02:47:53;;;;;;;6.07;5.57;;;20.40;99.90;;;;;;6085115;23;20446;-82
2022/08/05 02:50:41;;;;;;;7.77;7.07;;;20.50;99.90;;;;;;6075457;23;20418;-83
2022/08/05 02:53:11;;;;;;;6.80;6.20;;;20.40;99.90;;;;;;6077754;23;20451;-82
2022/08/05 02:55:49;;;;;;;7.13;5.37;;;20.50;99.90;;;;;;6080334;23;20350;-82
2022/08/05 02:58:26;;;;;;;7.10;6.40;;;20.40;99.90;;;;;;6073155;23;20417;-81
2022/08/05 03:00:59;;;;;;;6.90;6.20;;;20.40;99.90;;;;;;6075110;23;20788;-81
2022/08/05 03:03:29;;;;;;;6.57;5.93;;;20.30;99.90;;;;;;6074331;23;20419;-80
2022/08/05 03:06:19;;;;;;;11.73;7.10;;;20.30;99.90;;;;;;6050974;23;20403;-82
2022/08/05 03:09:06;;;;;;;12.20;6.60;;;20.20;99.90;;;;;;6072607;23;20401;-81
2022/08/05 03:11:33;;;;;;;8.77;7.43;;;20.20;99.90;;;;;;6073702;23;20431;-80
2022/08/05 03:14:20;;;;;;;10.50;6.80;;;20.20;99.90;;;;;;6073632;23;20384;-81
2022/08/05 03:16:48;;;;;;;6.43;5.90;;;20.20;99.90;;;;;;6073477;23;20572;-80
2022/08/05 03:19:18;;;;;;;8.17;6.23;;;20.30;99.90;;;;;;6073395;23;20455;-85
2022/08/05 03:22:01;;;;;;;7.00;6.03;;;20.20;99.90;;;;;;6073844;23;20429;-81
2022/08/05 03:24:31;;;;;;;7.50;6.90;;;20.10;99.90;;;;;;6073679;23;20720;-82
2022/08/05 03:27:00;;;;;;;7.80;7.00;;;20.20;99.90;;;;;;6073752;23;20472;-79
2022/08/05 03:29:27;;;;;;;7.03;6.30;;;20.20;99.90;;;;;;6073441;23;20474;-85
2022/08/05 03:32:15;;;;;;;8.73;7.83;;;20.00;99.90;;;;;;6074103;23;20407;-82
2022/08/05 03:34:45;;;;;;;8.93;7.30;;;20.10;99.90;;;;;;6074150;23;20383;-82
2022/08/05 03:37:18;;;;;;;8.53;7.73;;;20.10;99.90;;;;;;6075280;23;20452;-84
2022/08/05 03:39:56;;;;;;;7.83;6.30;;;20.10;99.90;;;;;;6074735;23;20405;-82
2022/08/05 03:42:25;;;;;;;7.17;6.43;;;20.00;99.90;;;;;;6074299;23;20419;-83
2022/08/05 03:44:54;;;;;;;8.23;7.43;;;20.10;99.90;;;;;;6049137;23;20423;-82
2022/08/05 03:47:22;;;;;;;8.47;6.87;;;20.10;99.90;;;;;;6073528;23;20427;-82
2022/08/05 03:49:50;;;;;;;8.73;7.93;;;20.00;99.90;;;;;;6048242;23;20378;-83
2022/08/05 03:52:23;;;;;;;7.83;7.10;;;20.10;99.90;;;;;;6072043;23;20382;-82
2022/08/05 03:55:17;;;;;;;7.57;6.87;;;20.00;99.90;;;;;;6072968;23;20372;-84
2022/08/05 03:58:09;;;;;;;8.53;6.80;;;20.10;99.90;;;;;;6072595;23;20530;-84
2022/08/05 04:00:40;;;;;;;9.00;7.57;;;20.10;99.90;;;;;;6074302;23;20808;-82
2022/08/05 04:03:11;;;;;;;8.67;7.70;;;20.20;99.90;;;;;;6074225;23;20402;-82
2022/08/05 04:05:57;;;;;;;7.70;6.93;;;20.30;99.90;;;;;;6074113;23;20495;-83
2022/08/05 04:08:29;;;;;;;8.10;7.40;;;20.30;99.90;;;;;;6074363;23;20393;-80
2022/08/05 04:11:06;;;;;;;9.03;8.13;;;20.40;99.90;;;;;;6051970;23;20366;-84
2022/08/05 04:13:39;;;;;;;12.20;8.87;;;20.40;99.90;;;;;;6075348;23;20370;-83
2022/08/05 04:16:18;;;;;;;7.47;6.87;;;20.40;99.90;;;;;;6074929;23;20681;-79
2022/08/05 04:18:53;;;;;;;11.87;8.70;;;20.50;99.90;;;;;;6074458;23;20350;-82
2022/08/05 04:21:23;;;;;;;7.03;6.40;;;20.60;99.90;;;;;;6075666;23;20381;-81
2022/08/05 04:24:11;;;;;;;7.40;6.70;;;20.60;99.90;;;;;;6075438;23;20378;-80
2022/08/05 04:26:48;;;;;;;7.57;6.80;;;20.80;99.90;;;;;;6052374;23;20384;-82
2022/08/05 04:29:15;;;;;;;7.50;6.80;;;20.80;99.90;;;;;;6076627;23;20382;-81
2022/08/05 04:31:43;;;;;;;7.13;6.53;;;21.10;99.90;;;;;;6076533;23;20450;-83
2022/08/05 04:34:13;;;;;;;8.03;7.13;;;21.00;99.90;;;;;;6076864;23;20431;-82
2022/08/05 04:37:00;;;;;;;7.53;6.93;;;21.10;99.90;;;;;;6055454;23;20350;-82
2022/08/05 04:39:29;;;;;;;7.90;7.00;;;21.10;99.90;;;;;;6076132;23;20411;-81
2022/08/05 04:41:57;;;;;;;12.33;8.40;;;21.10;99.90;;;;;;6076913;23;20689;-81
2022/08/05 04:44:24;;;;;;;7.07;6.47;;;21.30;99.90;;;;;;6080272;23;20375;-82
2022/08/05 04:46:57;;;;;;;7.10;6.53;;;21.30;99.90;;;;;;6087628;23;20435;-81
2022/08/05 04:49:25;;;;;;;8.33;6.90;;;21.40;99.90;;;;;;6075454;23;20556;-81
2022/08/05 04:52:14;;;;;;;7.87;7.17;;;21.50;99.90;;;;;;6076816;23;20411;-83
2022/08/05 04:54:41;;;;;;;7.90;6.07;;;21.50;99.90;;;;;;6050236;23;20479;-83
2022/08/05 04:57:09;;;;;;;14.90;7.40;;;21.60;99.90;;;;;;6050313;23;20714;-80
2022/08/05 04:59:36;;;;;;;6.90;6.40;;;21.70;99.90;;;;;;6075811;23;20417;-85
2022/08/05 05:02:07;;;;;;;8.00;7.20;;;21.80;99.90;;;;;;6076522;23;20407;-84
2022/08/05 05:04:54;;;;;;;30.87;7.27;;;22.00;99.90;;;;;;6081730;23;20393;-83
2022/08/05 05:07:29;;;;;;;7.40;6.70;;;22.10;99.90;;;;;;6089497;23;20367;-80
2022/08/05 05:09:58;;;;;;;8.27;7.47;;;22.20;99.90;;;;;;6089031;23;20407;-84
2022/08/05 05:12:28;;;;;;;7.93;7.00;;;22.20;99.90;;;;;;6089125;23;20373;-82
2022/08/05 05:14:55;;;;;;;7.60;6.73;;;22.30;99.90;;;;;;6064284;23;20372;-81
2022/08/05 05:17:24;;;;;;;7.83;7.13;;;22.40;99.90;;;;;;6051706;23;20402;-80
2022/08/05 05:20:12;;;;;;;7.10;6.40;;;22.50;99.90;;;;;;6053076;23;20380;-85
2022/08/05 05:22:40;;;;;;;9.00;8.07;;;22.70;99.90;;;;;;6073725;23;20411;-80
2022/08/05 05:25:12;;;;;;;7.50;6.90;;;22.70;99.90;;;;;;6073560;23;20390;-82
2022/08/05 05:27:43;;;;;;;8.30;7.60;;;22.90;99.90;;;;;;6073217;23;20357;-85
2022/08/05 05:30:20;;;;;;;9.23;7.43;;;22.80;99.90;;;;;;6074789;23;20410;-80
2022/08/05 05:33:01;;;;;;;12.33;8.30;;;22.80;99.90;;;;;;6074865;23;20405;-82
2022/08/05 05:35:44;;;;;;;8.03;7.23;;;22.80;99.90;;;;;;6074998;23;20381;-83
2022/08/05 05:38:11;;;;;;;9.50;7.87;;;23.00;99.90;;;;;;6075126;23;20447;-84
2022/08/05 05:40:41;;;;;;;7.67;6.87;;;23.10;99.90;;;;;;6050901;23;20369;-83
2022/08/05 05:43:18;;;;;;;8.27;7.57;;;23.20;99.90;;;;;;6075391;23;20400;-82
2022/08/05 05:46:07;;;;;;;7.17;6.57;;;23.30;99.90;;;;;;6086188;23;20417;-81
2022/08/05 05:48:45;;;;;;;8.40;7.60;;;23.50;99.90;;;;;;6084629;23;20460;-83
2022/08/05 05:51:32;;;;;;;9.37;8.40;;;23.60;99.90;;;;;;6086224;23;20383;-85
2022/08/05 05:54:16;;;;;;;7.70;7.00;;;23.60;99.90;;;;;;6087232;23;20389;-82
2022/08/05 05:56:45;;;;;;;8.33;7.53;;;23.70;99.90;;;;;;6086891;23;20539;-85
2022/08/05 05:59:15;;;;;;;9.43;7.70;;;23.90;99.90;;;;;;6086520;23;20395;-84
2022/08/05 06:01:42;;;;;;;7.50;6.43;;;24.00;99.90;;;;;;6085808;23;20376;-85
2022/08/05 06:04:23;;;;;;;8.20;7.37;;;24.00;99.90;;;;;;6079814;23;20550;-83
2022/08/05 06:06:50;;;;;;;7.77;6.97;;;24.40;99.90;;;;;;6083170;23;20644;-82
2022/08/05 06:09:17;;;;;;;8.57;7.80;;;24.60;99.90;;;;;;6077424;23;20608;-81
2022/08/05 06:12:05;;;;;;;12.27;8.27;;;24.80;99.90;;;;;;6076961;23;20516;-86
2022/08/05 06:14:35;;;;;;;8.00;7.20;;;24.80;99.90;;;;;;6051224;23;20776;-83
2022/08/05 06:17:05;;;;;;;8.37;6.80;;;24.90;99.90;;;;;;6052144;23;20445;-80
2022/08/05 06:19:50;;;;;;;10.40;7.57;;;25.10;99.90;;;;;;6074770;23;20362;-84
2022/08/05 06:22:27;;;;;;;7.43;6.73;;;25.40;99.90;;;;;;6057831;23;20449;-79
2022/08/05 06:24:54;;;;;;;6.90;6.40;;;25.40;99.90;;;;;;6060639;23;20399;-84
2022/08/05 06:27:23;;;;;;;7.67;6.97;;;25.60;99.90;;;;;;6074710;23;20412;-85
2022/08/05 06:30:14;;;;;;;8.33;7.53;;;26.00;99.90;;;;;;6052172;23;20401;-81
2022/08/05 06:32:45;;;;;;;8.70;7.80;;;26.30;99.90;;;;;;6049939;23;20386;-84
2022/08/05 06:35:12;;;;;;;7.20;6.60;;;26.80;99.90;;;;;;6050283;23;20369;-81
2022/08/05 06:37:47;;;;;;;8.70;7.57;;;27.40;99.90;;;;;;6072570;23;20486;-83
2022/08/05 06:40:26;;;;;;;6.60;6.00;;;28.40;99.90;;;;;;6049310;23;20481;-83
2022/08/05 06:42:59;;;;;;;9.13;6.50;;;28.60;99.90;;;;;;6079261;23;20409;-83
2022/08/05 06:45:26;;;;;;;6.57;6.00;;;28.50;99.90;;;;;;6083808;23;20984;-80
2022/08/05 06:48:13;;;;;;;6.53;5.93;;;28.60;99.90;;;;;;6072685;23;20398;-82
2022/08/05 06:51:01;;;;;;;9.23;7.00;;;28.90;99.90;;;;;;6071947;23;20682;-81
2022/08/05 06:53:35;;;;;;;6.60;6.00;;;28.80;99.90;;;;;;6073438;23;20778;-84
2022/08/05 06:56:20;;;;;;;7.37;6.63;;;29.10;99.90;;;;;;6050360;23;20382;-84
2022/08/05 06:58:52;;;;;;;7.80;7.10;;;29.70;99.90;;;;;;6072332;23;20430;-81
2022/08/05 07:01:20;;;;;;;7.17;6.47;;;30.90;99.90;;;;;;6072971;23;20477;-82
2022/08/05 07:03:48;;;;;;;7.33;6.63;;;31.50;99.90;;;;;;6047784;23;20536;-82
2022/08/05 07:06:16;;;;;;;9.23;6.83;;;31.60;99.90;;;;;;6073892;23;20630;-83
2022/08/05 07:08:46;;;;;;;7.80;7.03;;;31.30;99.90;;;;;;6074330;23;20449;-81
2022/08/05 07:11:20;;;;;;;7.07;6.43;;;31.40;99.90;;;;;;6073502;23;20390;-83
2022/08/05 07:16:49;;;;;;;8.83;7.90;;;32.50;99.90;;;;;;6074941;23;20559;-81
2022/08/05 07:19:36;;;;;;;6.53;5.93;;;33.70;99.90;;;;;;6076691;23;20408;-82
2022/08/05 07:22:23;;;;;;;6.80;6.20;;;33.90;99.90;;;;;;6075768;23;20707;-82
2022/08/05 07:25:00;;;;;;;7.20;5.70;;;34.90;99.40;;;;;;6073785;23;20563;-82
2022/08/05 07:27:50;;;;;;;8.40;6.60;;;36.00;96.90;;;;;;6074809;23;20429;-82
2022/08/05 07:30:27;;;;;;;6.57;5.73;;;37.10;94.00;;;;;;6074456;23;20422;-84
2022/08/05 07:33:00;;;;;;;6.10;5.60;;;36.50;94.00;;;;;;6072821;23;20457;-83
2022/08/05 07:35:37;;;;;;;6.97;6.27;;;36.40;92.90;;;;;;6073753;23;20466;-81
2022/08/05 07:38:24;;;;;;;5.73;5.33;;;37.40;91.80;;;;;;6054749;23;20406;-87
2022/08/05 07:41:06;;;;;;;8.27;6.23;;;36.80;91.30;;;;;;6074556;23;20713;-86
2022/08/05 07:43:55;;;;;;;6.60;5.70;;;37.00;90.80;;;;;;6073731;23;20438;-82
2022/08/05 07:46:26;;;;;;;7.43;5.30;;;39.00;86.10;;;;;;6076252;23;20421;-83
2022/08/05 07:48:59;;;;;;;6.33;5.83;;;40.00;80.70;;;;;;6052293;23;20433;-81
2022/08/05 07:51:33;;;;;;;6.37;5.63;;;40.00;78.20;;;;;;6075536;23;20388;-84
2022/08/05 07:54:06;;;;;;;6.03;5.50;;;40.50;75.30;;;;;;6076751;23;20380;-83
2022/08/05 07:56:41;;;;;;;6.70;5.70;;;40.60;74.50;;;;;;6078489;23;20386;-81
2022/08/05 07:59:28;;;;;;;5.33;4.93;;;40.70;73.60;;;;;;6076137;23;20516;-84
2022/08/05 08:02:08;;;;;;;5.40;5.10;;;42.20;69.90;;;;;;6076310;23;20735;-80
2022/08/05 08:04:47;;;;;;;5.83;5.33;;;41.90;67.40;;;;;;6050483;23;20501;-81
2022/08/05 08:07:17;;;;;;;5.83;5.43;;;41.20;66.70;;;;;;6074104;23;20889;-82
2022/08/05 08:10:17;;;;;;;5.80;5.40;;;41.90;66.50;;;;;;6059173;23;20804;-82
2022/08/05 08:12:48;;;;;;;7.03;6.33;;;43.20;62.20;;;;;;6075615;23;20697;-82
2022/08/05 08:15:20;;;;;;;5.73;5.23;;;42.70;61.50;;;;;;6037497;23;20397;-85
2022/08/05 08:18:09;;;;;;;8.97;4.97;;;43.50;59.30;;;;;;6076763;23;20406;-83
2022/08/05 08:20:40;;;;;;;6.43;5.93;;;43.20;59.10;;;;;;6050360;23;20383;-81
2022/08/05 08:23:28;;;;;;;5.90;5.50;;;43.70;57.90;;;;;;6034671;23;20469;-80
2022/08/05 08:26:15;;;;;;;5.57;5.17;;;42.70;58.20;;;;;;6074007;23;20410;-83
2022/08/05 08:28:55;;;;;;;7.13;5.13;;;41.50;59.80;;;;;;6077581;23;20378;-82
2022/08/05 08:31:45;;;;;;;6.10;5.10;;;42.40;59.50;;;;;;6080914;23;20422;-81
2022/08/05 08:34:23;;;;;;;14.63;6.37;;;43.10;58.20;;;;;;6080059;23;20398;-84
2022/08/05 08:37:00;;;;;;;5.10;4.63;;;41.80;58.70;;;;;;6079713;23;20386;-79
2022/08/05 08:39:41;;;;;;;5.23;4.33;;;42.30;58.40;;;;;;6079748;23;20401;-81
2022/08/05 08:42:16;;;;;;;5.00;4.70;;;43.00;57.40;;;;;;6076346;23;20386;-83
2022/08/05 08:45:02;;;;;;;6.43;5.83;;;44.20;56.00;;;;;;6075259;23;20440;-83
2022/08/05 08:47:50;;;;;;;5.30;4.30;;;44.90;55.60;;;;;;6077808;23;20400;-81
2022/08/05 08:50:40;;;;;;;6.17;5.77;;;44.00;54.50;;;;;;6077726;23;20394;-83
2022/08/05 08:53:38;;;;;;;5.70;5.27;;;44.00;54.50;;;;;;6079137;23;20437;-86
2022/08/05 08:56:16;;;;;;;4.70;4.40;;;44.40;54.00;;;;;;6034721;23;20382;-87
2022/08/05 08:58:50;;;;;;;5.00;4.63;;;45.20;51.30;;;;;;6077146;23;20458;-81
2022/08/05 09:01:24;;;;;;;5.40;5.10;;;45.00;51.40;;;;;;6076797;23;20410;-84
2022/08/05 09:03:57;;;;;;;5.87;4.40;;;44.00;52.60;;;;;;6073683;23;20489;-82
2022/08/05 09:06:29;;;;;;;5.00;4.70;;;45.10;50.70;;;;;;6055095;23;20410;-84
2022/08/05 09:09:03;;;;;;;4.37;4.17;;;44.40;50.90;;;;;;6079413;23;20409;-85
2022/08/05 09:11:33;;;;;;;5.27;4.77;;;44.80;50.50;;;;;;6081024;23;20375;-84
2022/08/05 09:14:22;;;;;;;4.60;4.30;;;44.00;51.50;;;;;;6080534;23;20756;-82
2022/08/05 09:17:14;;;;;;;4.80;4.40;;;43.40;51.20;;;;;;6082851;23;20414;-81
2022/08/05 09:20:03;;;;;;;4.50;4.20;;;44.00;50.90;;;;;;6084148;23;20478;-83
2022/08/05 09:23:10;;;;;;;4.67;4.27;;;41.70;53.50;;;;;;6067090;23;20457;-81
2022/08/05 09:25:50;;;;;;;5.63;5.10;;;41.90;53.00;;;;;;6070304;23;20382;-84
2022/08/05 09:28:31;;;;;;;5.20;4.80;;;41.80;54.10;;;;;;6072131;23;20420;-81
2022/08/05 09:31:10;;;;;;;4.30;4.00;;;42.20;53.20;;;;;;6087724;23;20573;-83
2022/08/05 09:34:08;;;;;;;5.57;5.17;;;42.70;51.20;;;;;;6079570;23;20928;-82
2022/08/05 09:36:43;;;;;;;4.23;4.03;;;40.90;53.60;;;;;;6079520;23;20787;-84
2022/08/05 09:39:23;;;;;;;4.50;4.20;;;39.50;55.80;;;;;;6077639;23;20386;-81
2022/08/05 09:42:11;;;;;;;5.37;4.97;;;38.10;56.40;;;;;;6078493;23;20402;-84
2022/08/05 09:44:56;;;;;;;4.17;3.87;;;37.20;58.40;;;;;;6054860;23;20497;-82
2022/08/05 09:47:46;;;;;;;4.40;4.10;;;36.30;59.80;;;;;;6054217;23;20406;-86
2022/08/05 09:50:47;;;;;;;3.70;3.40;;;36.00;57.70;;;;;;6077027;23;20385;-81
2022/08/05 09:53:17;;;;;;;4.20;3.80;;;35.50;58.40;;;;;;6076956;23;20450;-83
2022/08/05 09:56:01;;;;;;;5.80;4.30;;;35.20;59.30;;;;;;6051626;23;20386;-83
2022/08/05 09:58:39;;;;;;;4.90;4.50;;;35.20;59.50;;;;;;6074197;23;20446;-83
2022/08/05 10:01:12;;;;;;;4.37;4.07;;;35.10;62.40;;;;;;6075889;23;20394;-83
2022/08/05 10:04:03;;;;;;;4.30;4.00;;;35.10;59.70;;;;;;6077156;23;20457;-82
2022/08/05 10:06:39;;;;;;;4.40;4.10;;;34.90;59.80;;;;;;6074481;23;20410;-82
2022/08/05 10:09:17;;;;;;;4.70;4.30;;;35.00;60.80;;;;;;6075016;23;20412;-81
2022/08/05 10:12:05;;;;;;;12.00;4.30;;;35.10;62.20;;;;;;6054003;23;20418;-83
2022/08/05 10:15:30;;;;;;;4.40;4.00;;;35.00;59.00;;;;;;6077978;23;20472;-83
2022/08/05 10:18:11;;;;;;;4.73;4.33;;;34.70;59.10;;;;;;6031471;23;20776;-84
2022/08/05 10:20:55;;;;;;;4.00;3.70;;;34.70;61.20;;;;;;6057227;23;20441;-84
2022/08/05 10:23:25;;;;;;;4.53;4.10;;;35.00;60.20;;;;;;6089170;23;20485;-82
2022/08/05 10:26:12;;;;;;;4.20;3.80;;;35.10;60.50;;;;;;6093062;23;20426;-80
2022/08/05 10:28:42;;;;;;;4.40;4.10;;;35.10;58.10;;;;;;6091451;23;20394;-83
2022/08/05 10:31:17;;;;;;;3.63;3.43;;;34.90;58.60;;;;;;6060677;23;20792;-84
2022/08/05 10:34:15;;;;;;;5.33;4.40;;;35.00;59.60;;;;;;6078515;23;20471;-82
2022/08/05 10:36:51;;;;;;;3.70;3.50;;;35.00;59.70;;;;;;6052598;23;20503;-82
2022/08/05 10:39:30;;;;;;;4.40;4.00;;;34.90;59.20;;;;;;6079768;23;20394;-81
2022/08/05 10:42:22;;;;;;;5.10;3.90;;;34.80;60.30;;;;;;6078163;23;20406;-83
2022/08/05 10:45:00;;;;;;;3.77;3.50;;;34.90;61.40;;;;;;6083824;23;20438;-81
2022/08/05 10:47:56;;;;;;;8.43;3.60;;;34.80;59.40;;;;;;6088489;23;20424;-85
2022/08/05 10:51:16;;;;;;;3.50;3.30;;;34.60;60.00;;;;;;6077562;23;20398;-83
2022/08/05 10:53:55;;;;;;;4.10;3.90;;;34.60;61.10;;;;;;6077319;23;20449;-81
2022/08/05 10:56:29;;;;;;;4.43;3.93;;;34.70;60.50;;;;;;6050820;23;20450;-82
2022/08/05 10:58:59;;;;;;;4.23;3.67;;;34.60;61.20;;;;;;6075675;23;20452;-82
2022/08/05 11:01:45;;;;;;;3.90;3.50;;;34.80;63.10;;;;;;6075330;23;20720;-80
2022/08/05 11:04:22;;;;;;;3.50;3.20;;;35.00;59.60;;;;;;6061525;23;20510;-82
2022/08/05 11:07:03;;;;;;;4.10;3.80;;;35.10;58.80;;;;;;6075700;23;20489;-83
2022/08/05 11:10:01;;;;;;;3.60;3.33;;;35.00;58.70;;;;;;6073139;23;20386;-82
2022/08/05 11:12:35;;;;;;;3.93;3.63;;;35.10;59.60;;;;;;6051938;23;20414;-82
2022/08/05 11:15:08;;;;;;;3.67;3.37;;;35.40;58.00;;;;;;6075032;23;20792;-83
2022/08/05 11:17:54;;;;;;;5.63;3.03;;;35.40;57.80;;;;;;6075338;23;20586;-82
2022/08/05 11:20:46;;;;;;;3.30;3.10;;;35.50;58.40;;;;;;6050286;23;20441;-81
2022/08/05 11:23:41;;;;;;;3.70;3.40;;;35.60;58.10;;;;;;6075317;23;20429;-84
2022/08/05 11:26:28;;;;;;;12.47;4.50;;;35.70;57.70;;;;;;6074568;23;20402;-85
2022/08/05 11:29:01;;;;;;;5.00;3.23;;;35.60;57.00;;;;;;6052410;23;20408;-85
2022/08/05 11:31:40;;;;;;;3.60;3.00;;;35.70;56.40;;;;;;6053344;23;20437;-81
2022/08/05 11:34:39;;;;;;;2.80;2.67;;;35.80;55.40;;;;;;6076259;23;20655;-81
2022/08/05 11:37:54;;;;;;;3.33;3.13;;;35.90;55.20;;;;;;6054022;23;20390;-83
2022/08/05 11:41:02;;;;;;;3.43;3.23;;;35.90;56.20;;;;;;6075076;23;20425;-84
2022/08/05 11:44:13;;;;;;;3.37;3.17;;;36.00;56.70;;;;;;6077411;23;20446;-84
2022/08/05 11:47:00;;;;;;;3.50;2.77;;;36.20;57.30;;;;;;6075425;23;20409;-82
2022/08/05 11:49:40;;;;;;;3.00;2.80;;;36.30;57.10;;;;;;6076548;23;20402;-84
2022/08/05 11:52:09;;;;;;;3.20;3.00;;;36.30;55.80;;;;;;6075279;23;20382;-83
2022/08/05 11:54:38;;;;;;;3.23;3.03;;;36.20;53.70;;;;;;6051208;23;20421;-82
2022/08/05 11:57:07;;;;;;;3.53;3.33;;;35.90;53.70;;;;;;6076925;23;20402;-83
2022/08/05 11:59:53;;;;;;;3.30;2.93;;;35.60;53.90;;;;;;6055750;23;20754;-84
2022/08/05 12:02:26;;;;;;;3.10;2.80;;;35.50;53.60;;;;;;6077662;23;20473;-82
2022/08/05 12:04:59;;;;;;;6.00;3.40;;;35.30;54.20;;;;;;6079934;23;20747;-83
2022/08/05 12:07:33;;;;;;;4.37;3.37;;;35.30;55.70;;;;;;6080049;23;20461;-81
2022/08/05 12:10:23;;;;;;;7.83;2.90;;;35.40;57.50;;;;;;6079703;23;20485;-82
2022/08/05 12:13:11;;;;;;;4.50;3.10;;;35.30;55.20;;;;;;6077212;23;20398;-83
2022/08/05 12:15:46;;;;;;;3.60;3.30;;;35.30;55.80;;;;;;6055482;23;20383;-84
2022/08/05 12:18:28;;;;;;;3.57;3.37;;;35.30;55.70;;;;;;6079709;23;20614;-81
2022/08/05 12:21:13;;;;;;;3.17;2.97;;;35.20;55.10;;;;;;6081542;23;20389;-83
2022/08/05 12:23:53;;;;;;;3.53;3.23;;;35.20;56.20;;;;;;6084187;23;20704;-81
2022/08/05 12:26:20;;;;;;;3.53;3.33;;;35.30;55.40;;;;;;6083457;23;20409;-82
2022/08/05 12:28:49;;;;;;;3.57;3.33;;;35.30;53.90;;;;;;6081605;23;20402;-80
2022/08/05 12:31:17;;;;;;;3.37;3.17;;;35.40;53.60;;;;;;6081215;23;20454;-82
2022/08/05 12:34:00;;;;;;;3.67;3.37;;;35.40;52.60;;;;;;6083692;23;20422;-82
2022/08/05 12:36:30;;;;;;;3.47;3.27;;;35.30;53.50;;;;;;6084357;23;20434;-80
2022/08/05 12:38:59;;;;;;;3.67;3.47;;;35.30;52.70;;;;;;6079959;23;20678;-81
2022/08/05 12:41:31;;;;;;;3.10;2.90;;;35.00;53.80;;;;;;6055668;23;20489;-82
2022/08/05 12:44:14;;;;;;;2.67;2.47;;;35.20;54.00;;;;;;6081566;23;20425;-82
2022/08/05 12:47:00;;;;;;;3.40;3.10;;;35.30;53.70;;;;;;6077137;23;20438;-84
2022/08/05 12:49:39;;;;;;;2.87;2.67;;;35.20;55.00;;;;;;6077826;23;20767;-81
2022/08/05 12:52:26;;;;;;;3.90;3.60;;;35.40;54.70;;;;;;6079455;23;20621;-83
2022/08/05 12:55:25;;;;;;;3.20;3.00;;;35.40;53.90;;;;;;6081148;23;20495;-81
2022/08/05 12:57:59;;;;;;;2.90;2.70;;;35.20;52.60;;;;;;6079370;23;20386;-82
2022/08/05 13:00:46;;;;;;;2.70;2.50;;;35.10;53.30;;;;;;6055430;23;20402;-83
2022/08/05 13:03:37;;;;;;;2.90;2.70;;;35.10;54.50;;;;;;6076628;23;20799;-82
2022/08/05 13:06:16;;;;;;;4.13;3.03;;;35.10;53.30;;;;;;6074871;23;20507;-83
2022/08/05 13:08:45;;;;;;;3.23;2.90;;;35.10;54.10;;;;;;6050348;23;20720;-83
2022/08/05 13:11:20;;;;;;;3.10;2.90;;;35.20;54.50;;;;;;6074189;23;20409;-82
2022/08/05 13:14:23;;;;;;;3.40;3.20;;;35.30;54.60;;;;;;6075149;23;20442;-86
2022/08/05 13:17:23;;;;;;;3.37;3.17;;;35.30;54.50;;;;;;6071045;23;20381;-83
2022/08/05 13:20:14;;;;;;;3.20;3.00;;;35.40;54.70;;;;;;6056773;23;20382;-82
2022/08/05 13:22:55;;;;;;;4.03;3.63;;;35.50;54.10;;;;;;6074276;23;20402;-84
2022/08/05 13:25:23;;;;;;;3.30;3.00;;;35.20;54.10;;;;;;6049883;23;20433;-81
2022/08/05 13:28:11;;;;;;;3.07;2.87;;;35.40;54.60;;;;;;6075183;23;20413;-83
2022/08/05 13:30:39;;;;;;;2.90;2.70;;;35.30;54.40;;;;;;6074716;23;20570;-83
2022/08/05 13:33:06;;;;;;;3.10;2.90;;;35.20;53.90;;;;;;6077096;23;20403;-83
2022/08/05 13:35:39;;;;;;;3.10;2.90;;;35.20;53.80;;;;;;6078261;23;20463;-81
2022/08/05 13:38:18;;;;;;;3.57;3.37;;;35.10;53.30;;;;;;6051905;23;20469;-79
2022/08/05 13:41:02;;;;;;;4.80;3.30;;;34.80;53.70;;;;;;6075787;23;20379;-83
2022/08/05 13:43:29;;;;;;;3.20;3.00;;;34.60;53.90;;;;;;6047689;23;20398;-84
2022/08/05 13:46:17;;;;;;;3.33;3.03;;;34.60;54.10;;;;;;6075539;23;20408;-82
2022/08/05 13:49:04;;;;;;;10.00;3.40;;;34.80;54.90;;;;;;6074425;23;20402;-82